METAR Data
IDs: Format: Raw Decoded Include TAF

Data at: 0334 UTC 05 Jun 2020

KBBG 050315Z AUTO 14003KT 10SM SCT040 BKN048 23/22 A2989 RMK AO2 PWINO PNO
KBBG 050255Z AUTO 14005KT 10SM SCT040 BKN048 23/22 A2988 RMK AO2 PWINO PNO
KBBG 050235Z AUTO 15004KT 10SM OVC046 24/22 A2987 RMK AO2 PWINO PNO
KBBG 050215Z AUTO 15005KT 10SM OVC043 24/22 A2986 RMK AO2 PWINO PNO
KBBG 050145Z 16005KT 10SM BKN043 24/23 A2985
KBBG 050048Z 11007KT 10SM SCT047 BKN250 25/23 A2984
KBBG 042351Z 12005KT 10SM SCT049 SCT250 29/23 A2985
KBBG 042253Z 24006KT 10SM SCT044 SCT250 30/21 A2985
KBBG 042145Z 30005KT 10SM FEW036 SCT250 30/22 A2985
KBBG 042056Z 28006KT 10SM FEW040 SCT250 29/21 A2986
KBBG 041958Z 25005KT 10SM FEW150 SCT250 28/20 A2987
KBBG 041845Z 24005KT 10SM FEW150 SCT250 26/20 A2987
KBBG 041745Z 22008KT 10SM SCT150 BKN220 23/19 A2988
KBBG 041645Z 00000KT 10SM SCT150 BKN220 20/18 A2990
KBBG 041545Z 23006KT 10SM BKN140 BKN200 18/18 A2988
KBBG 041445Z 28004KT 10SM BKN140 BKN200 18/18 A2991
KBBG 041345Z 21006KT 10SM SCT065 BKN120 17/17 A2995
KBBG 041245Z 19005KT 10SM FEW065 SCT070 BKN085 17/17 A2994 RMK LTG DSNT E AND SW
KBBG 041145Z 01006KT 7SM FEW033 BKN050 OVC060 17/17 A2994
KBBG 041115Z AUTO 36013G29KT 2 1/2SM VCTS FEW004 SCT019 BKN034 17/17 A2995 RMK AO2 LTG DSNT ALQDS PWINO PNO
KBBG 041055Z AUTO 33030G37KT 2 1/2SM FEW021 SCT046 BKN090 21/18 A2996 RMK AO2 LTG DSNT W-NE PWINO PNO
KBBG 041035Z AUTO 22007KT 10SM CLR 22/20 A2985 RMK AO2 LTG DSNT NW-E PWINO PNO
KBBG 041015Z AUTO 21008KT 180V240 10SM CLR 22/20 A2984 RMK AO2 LTG DSNT NE AND NW PWINO PNO
KBBG 040955Z AUTO 21007KT 10SM CLR 22/20 A2984 RMK AO2 PWINO PNO
KBBG 040935Z AUTO 21006KT 10SM CLR 22/20 A2985 RMK AO2 PWINO PNO
KBBG 040915Z AUTO 21005KT 10SM CLR 22/20 A2984 RMK AO2 PWINO PNO
KBBG 040855Z AUTO 20004KT 10SM CLR 22/20 A2985 RMK AO2 PWINO PNO
KBBG 040835Z AUTO 19003KT 10SM CLR 22/20 A2985 RMK AO2 PWINO PNO
KBBG 040815Z AUTO 19004KT 10SM CLR 23/20 A2986 RMK AO2 PWINO PNO
KBBG 040755Z AUTO 21003KT 10SM CLR 22/20 A2986 RMK AO2 PWINO PNO
KBBG 040735Z AUTO 20004KT 10SM CLR 22/20 A2986 RMK AO2 PWINO PNO
KBBG 040715Z AUTO 21004KT 10SM CLR 22/20 A2986 RMK AO2 PWINO PNO
KBBG 040655Z AUTO 20005KT 10SM CLR 22/20 A2987 RMK AO2 PWINO PNO
KBBG 040635Z AUTO 20004KT 10SM CLR 22/19 A2988 RMK AO2 PWINO PNO
KBBG 040615Z AUTO 20004KT 10SM CLR 22/20 A2989 RMK AO2 PWINO PNO
KBBG 040555Z AUTO 19003KT 10SM CLR 22/20 A2990 RMK AO2 PWINO PNO
KBBG 040535Z AUTO 18003KT 10SM CLR 22/20 A2990 RMK AO2 PWINO PNO
KBBG 040515Z AUTO 18004KT 10SM CLR 22/20 A2990 RMK AO2 PWINO PNO
KBBG 040455Z AUTO 19003KT 10SM CLR 22/20 A2991 RMK AO2 PWINO PNO
KBBG 040435Z AUTO 18003KT 10SM CLR 22/20 A2991 RMK AO2 PWINO PNO
KBBG 040415Z AUTO 20004KT 10SM CLR 22/19 A2989 RMK AO2 PWINO PNO
KBBG 040355Z AUTO 18003KT 10SM CLR 22/19 A2989 RMK AO2 PWINO PNO
KBBG 040335Z AUTO 19004KT 10SM CLR 22/19 A2989 RMK AO2 PWINO PNO
KBBG 040315Z AUTO 19003KT 10SM FEW044 22/19 A2989 RMK AO2 PWINO PNO
KBBG 040255Z AUTO 19005KT 10SM SCT044 BKN050 22/19 A2989 RMK AO2 PWINO PNO
KBBG 040235Z AUTO 19004KT 10SM BKN049 22/19 A2989 RMK AO2 PWINO PNO
KBBG 040215Z AUTO 19005KT 10SM SCT047 22/20 A2989 RMK AO2 PWINO PNO
KBBG 040145Z 18005KT 10SM SKC 22/20 A2989
KBBG 040045Z 17005KT 10SM FEW065 SCT180 23/19 A2990
KBBG 032345Z 17014KT 10SM FEW044 SCT200 25/19 A2992
KBBG 032245Z 17007KT 10SM SCT180 27/22 A2991
KBBG 032145Z 13012KT 10SM SCT180 26/22 A2992
KBBG 032045Z 14010KT 10SM SCT120 BKN180 23/23 A2994
KBBG 031945Z 00000KT 8SM FEW029 BKN037 BKN180 23/23 A2995 RMK LTG DSNT ALQDS
KBBG 031846Z 20006KT 10SM SCT039 BKN065 BKN100 28/20 A2995
KBBG 031746Z 24007KT 10SM BKN037 BKN043 29/20 A2998
KBBG 031645Z 25007KT 10SM SCT033 29/20 A3000
KBBG 031545Z 27006KT 10SM FEW200 28/20 A3002